sensor_id;sensor_type;location;lat;lon;timestamp;pressure;altitude;pressure_sealevel;temperature;humidity
40596;BME280;26304;48.794;9.820;2023-02-08T00:04:19;98161.78;;;15.76;43.20
40596;BME280;26304;48.794;9.820;2023-02-08T00:10:03;98158.72;;;15.74;43.78
40596;BME280;26304;48.794;9.820;2023-02-08T00:15:47;98143.91;;;15.69;43.60
40596;BME280;26304;48.794;9.820;2023-02-08T00:21:29;98138.19;;;15.67;43.93
40596;BME280;26304;48.794;9.820;2023-02-08T00:27:13;98135.09;;;15.65;44.01
40596;BME280;26304;48.794;9.820;2023-02-08T00:32:55;98136.50;;;15.62;43.46
40596;BME280;26304;48.794;9.820;2023-02-08T00:38:38;98139.72;;;15.59;43.62
40596;BME280;26304;48.794;9.820;2023-02-08T00:44:22;98131.41;;;15.57;43.62
40596;BME280;26304;48.794;9.820;2023-02-08T00:50:05;98127.84;;;15.53;43.80
40596;BME280;26304;48.794;9.820;2023-02-08T00:55:50;98124.75;;;15.51;43.88
40596;BME280;26304;48.794;9.820;2023-02-08T01:01:33;98130.59;;;15.48;43.74
40596;BME280;26304;48.794;9.820;2023-02-08T01:07:16;98134.28;;;15.47;43.68
40596;BME280;26304;48.794;9.820;2023-02-08T01:12:59;98136.75;;;15.43;44.16
40596;BME280;26304;48.794;9.820;2023-02-08T01:18:45;98132.13;;;15.40;44.62
40596;BME280;26304;48.794;9.820;2023-02-08T01:24:27;98134.59;;;15.37;44.02
40596;BME280;26304;48.794;9.820;2023-02-08T01:30:11;98124.72;;;15.34;43.92
40596;BME280;26304;48.794;9.820;2023-02-08T01:35:55;98120.09;;;15.31;44.52
40596;BME280;26304;48.794;9.820;2023-02-08T01:41:39;98114.38;;;15.29;44.26
40596;BME280;26304;48.794;9.820;2023-02-08T01:47:24;98107.28;;;15.29;44.50
40596;BME280;26304;48.794;9.820;2023-02-08T01:53:08;98103.41;;;15.26;44.28
40596;BME280;26304;48.794;9.820;2023-02-08T01:58:52;98106.94;;;15.22;44.17
40596;BME280;26304;48.794;9.820;2023-02-08T02:04:36;98107.25;;;15.20;44.74
40596;BME280;26304;48.794;9.820;2023-02-08T02:10:24;98101.56;;;15.18;44.45
40596;BME280;26304;48.794;9.820;2023-02-08T02:16:07;98099.84;;;15.14;44.02
40596;BME280;26304;48.794;9.820;2023-02-08T02:21:59;98091.09;;;15.18;44.44
40596;BME280;26304;48.794;9.820;2023-02-08T02:27:58;98080.78;;;16.36;42.30
40596;BME280;26304;48.794;9.820;2023-02-08T02:34:03;98073.34;;;17.45;40.51
40596;BME280;26304;48.794;9.820;2023-02-08T02:40:07;98074.88;;;18.21;39.28
40596;BME280;26304;48.794;9.820;2023-02-08T02:45:56;98070.88;;;18.61;38.82
40596;BME280;26304;48.794;9.820;2023-02-08T02:51:45;98077.59;;;18.83;38.41
40596;BME280;26304;48.794;9.820;2023-02-08T02:57:31;98084.75;;;19.07;38.51
40596;BME280;26304;48.794;9.820;2023-02-08T03:03:16;98085.72;;;18.65;39.66
40596;BME280;26304;48.794;9.820;2023-02-08T03:09:24;98076.09;;;18.36;39.70
40596;BME280;26304;48.794;9.820;2023-02-08T03:15:17;98069.38;;;18.14;40.55
40596;BME280;26304;48.794;9.820;2023-02-08T03:21:08;98065.53;;;18.11;40.40
40596;BME280;26304;48.794;9.820;2023-02-08T03:26:57;98081.47;;;18.85;39.56
40596;BME280;26304;48.794;9.820;2023-02-08T03:32:45;98074.88;;;19.16;39.06
40596;BME280;26304;48.794;9.820;2023-02-08T03:38:31;98069.34;;;20.03;37.91
40596;BME280;26304;48.794;9.820;2023-02-08T03:44:19;98070.34;;;20.42;37.18
40596;BME280;26304;48.794;9.820;2023-02-08T03:50:06;98059.63;;;20.67;37.00
40596;BME280;26304;48.794;9.820;2023-02-08T03:55:53;98067.34;;;20.92;36.70
40596;BME280;26304;48.794;9.820;2023-02-08T04:01:42;98070.53;;;21.17;36.55
40596;BME280;26304;48.794;9.820;2023-02-08T04:07:25;98073.06;;;21.29;36.49
40596;BME280;26304;48.794;9.820;2023-02-08T04:13:07;98074.78;;;21.57;36.23
40596;BME280;26304;48.794;9.820;2023-02-08T04:18:51;98066.13;;;21.60;36.54
40596;BME280;26304;48.794;9.820;2023-02-08T04:24:33;98070.03;;;21.66;36.31
40596;BME280;26304;48.794;9.820;2023-02-08T04:30:16;98054.16;;;21.66;36.34
40596;BME280;26304;48.794;9.820;2023-02-08T04:36:00;98053.91;;;21.16;37.22
40596;BME280;26304;48.794;9.820;2023-02-08T04:41:42;98053.44;;;20.63;38.25
40596;BME280;26304;48.794;9.820;2023-02-08T04:47:25;98053.53;;;20.19;39.02
40596;BME280;26304;48.794;9.820;2023-02-08T04:53:08;98041.03;;;19.87;39.84
40596;BME280;26304;48.794;9.820;2023-02-08T04:58:51;98038.06;;;19.89;39.63
40596;BME280;26304;48.794;9.820;2023-02-08T05:04:33;98035.81;;;20.51;38.47
40596;BME280;26304;48.794;9.820;2023-02-08T05:10:17;98035.44;;;21.20;37.28
40596;BME280;26304;48.794;9.820;2023-02-08T05:16:00;98034.84;;;21.46;37.18
40596;BME280;26304;48.794;9.820;2023-02-08T05:21:42;98034.13;;;21.65;36.81
40596;BME280;26304;48.794;9.820;2023-02-08T05:27:27;98038.53;;;21.81;37.03
40596;BME280;26304;48.794;9.820;2023-02-08T05:33:09;98040.72;;;21.55;37.49
40596;BME280;26304;48.794;9.820;2023-02-08T05:38:51;98042.91;;;21.34;38.08
40596;BME280;26304;48.794;9.820;2023-02-08T05:44:35;98050.28;;;21.25;38.19
40596;BME280;26304;48.794;9.820;2023-02-08T05:50:18;98045.31;;;21.03;39.19
40596;BME280;26304;48.794;9.820;2023-02-08T05:56:00;98045.16;;;20.96;39.12
40596;BME280;26304;48.794;9.820;2023-02-08T06:01:44;98047.91;;;20.84;39.78
40596;BME280;26304;48.794;9.820;2023-02-08T06:07:27;98051.69;;;20.67;39.99
40596;BME280;26304;48.794;9.820;2023-02-08T06:13:09;98050.94;;;20.66;40.46
40596;BME280;26304;48.794;9.820;2023-02-08T06:18:53;98067.09;;;20.49;40.79
40596;BME280;26304;48.794;9.820;2023-02-08T06:24:36;98067.84;;;20.33;40.93
40596;BME280;26304;48.794;9.820;2023-02-08T06:30:18;98066.84;;;20.38;40.75
40596;BME280;26304;48.794;9.820;2023-02-08T06:36:02;98064.59;;;20.40;40.55
40596;BME280;26304;48.794;9.820;2023-02-08T06:41:47;98065.97;;;20.34;41.27
40596;BME280;26304;48.794;9.820;2023-02-08T06:47:30;98060.78;;;20.22;40.42
40596;BME280;26304;48.794;9.820;2023-02-08T06:53:14;98061.78;;;20.17;41.04
40596;BME280;26304;48.794;9.820;2023-02-08T06:58:56;98053.00;;;20.13;40.78
40596;BME280;26304;48.794;9.820;2023-02-08T07:04:39;98051.78;;;19.94;41.44
40596;BME280;26304;48.794;9.820;2023-02-08T07:10:22;98055.81;;;19.76;41.59
40596;BME280;26304;48.794;9.820;2023-02-08T07:16:06;98056.31;;;19.53;41.64
40596;BME280;26304;48.794;9.820;2023-02-08T07:21:49;98059.00;;;19.29;41.81
40596;BME280;26304;48.794;9.820;2023-02-08T07:27:33;98065.84;;;19.17;41.79
40596;BME280;26304;48.794;9.820;2023-02-08T07:33:16;98067.94;;;18.99;42.61
40596;BME280;26304;48.794;9.820;2023-02-08T07:38:59;98074.78;;;18.88;42.14
40596;BME280;26304;48.794;9.820;2023-02-08T07:44:43;98083.84;;;18.78;42.24
40596;BME280;26304;48.794;9.820;2023-02-08T07:50:26;98084.84;;;18.74;42.65
40596;BME280;26304;48.794;9.820;2023-02-08T07:56:09;98072.44;;;18.74;44.49
40596;BME280;26304;48.794;9.820;2023-02-08T08:01:53;98073.97;;;18.63;45.14
40596;BME280;26304;48.794;9.820;2023-02-08T08:07:35;98072.19;;;18.55;45.05
40596;BME280;26304;48.794;9.820;2023-02-08T08:13:18;98071.88;;;18.56;45.07
40596;BME280;26304;48.794;9.820;2023-02-08T08:19:02;98069.84;;;18.28;42.64
40596;BME280;26304;48.794;9.820;2023-02-08T08:24:44;98072.09;;;18.05;42.96
40596;BME280;26304;48.794;9.820;2023-02-08T08:30:26;98071.13;;;18.10;43.46
40596;BME280;26304;48.794;9.820;2023-02-08T08:36:10;98075.31;;;18.23;43.06
40596;BME280;26304;48.794;9.820;2023-02-08T08:41:54;98063.22;;;18.56;43.07
40596;BME280;26304;48.794;9.820;2023-02-08T08:47:38;98067.63;;;18.18;43.54
40596;BME280;26304;48.794;9.820;2023-02-08T08:53:22;98061.25;;;18.07;44.03
40596;BME280;26304;48.794;9.820;2023-02-08T08:59:04;98066.38;;;18.03;42.71
40596;BME280;26304;48.794;9.820;2023-02-08T09:04:46;98066.66;;;17.89;41.69
40596;BME280;26304;48.794;9.820;2023-02-08T09:10:30;98068.56;;;17.80;41.67
40596;BME280;26304;48.794;9.820;2023-02-08T09:16:15;98056.66;;;17.83;41.52
40596;BME280;26304;48.794;9.820;2023-02-08T09:21:57;98058.78;;;17.89;40.96
40596;BME280;26304;48.794;9.820;2023-02-08T09:27:42;98055.81;;;17.91;40.81
40596;BME280;26304;48.794;9.820;2023-02-08T09:33:24;98056.72;;;17.95;40.57
40596;BME280;26304;48.794;9.820;2023-02-08T09:39:08;98057.81;;;17.94;40.61
40596;BME280;26304;48.794;9.820;2023-02-08T09:45:11;98049.84;;;17.82;41.84
40596;BME280;26304;48.794;9.820;2023-02-08T09:51:05;98049.34;;;17.88;40.96
40596;BME280;26304;48.794;9.820;2023-02-08T09:56:51;98045.72;;;17.93;41.49
40596;BME280;26304;48.794;9.820;2023-02-08T10:02:35;98054.00;;;17.83;41.49
40596;BME280;26304;48.794;9.820;2023-02-08T10:08:18;98050.13;;;17.89;41.21
40596;BME280;26304;48.794;9.820;2023-02-08T10:14:10;98045.28;;;17.91;40.73
40596;BME280;26304;48.794;9.820;2023-02-08T10:20:03;98047.53;;;17.80;41.21
40596;BME280;26304;48.794;9.820;2023-02-08T10:26:06;98044.22;;;17.92;40.91
40596;BME280;26304;48.794;9.820;2023-02-08T10:32:06;98034.78;;;17.91;40.83
40596;BME280;26304;48.794;9.820;2023-02-08T10:37:57;98033.69;;;17.92;40.72
40596;BME280;26304;48.794;9.820;2023-02-08T10:43:43;98024.25;;;17.91;40.59
40596;BME280;26304;48.794;9.820;2023-02-08T10:49:34;98029.84;;;17.89;41.00
40596;BME280;26304;48.794;9.820;2023-02-08T10:55:22;98011.53;;;17.93;40.78
40596;BME280;26304;48.794;9.820;2023-02-08T11:01:07;98014.38;;;17.88;40.77
40596;BME280;26304;48.794;9.820;2023-02-08T11:06:49;97999.63;;;17.87;41.04
40596;BME280;26304;48.794;9.820;2023-02-08T11:12:35;97996.84;;;17.92;40.46
40596;BME280;26304;48.794;9.820;2023-02-08T11:18:21;97986.19;;;17.88;40.62
40596;BME280;26304;48.794;9.820;2023-02-08T11:24:21;97986.97;;;17.89;40.73
40596;BME280;26304;48.794;9.820;2023-02-08T11:30:20;97975.66;;;17.88;40.31
40596;BME280;26304;48.794;9.820;2023-02-08T11:36:05;97971.81;;;17.86;40.80
40596;BME280;26304;48.794;9.820;2023-02-08T11:41:51;97969.19;;;17.86;40.50
40596;BME280;26304;48.794;9.820;2023-02-08T11:47:36;97954.16;;;17.86;40.66
40596;BME280;26304;48.794;9.820;2023-02-08T11:53:26;97967.63;;;17.85;40.79
40596;BME280;26304;48.794;9.820;2023-02-08T11:59:18;97959.75;;;17.85;40.95
40596;BME280;26304;48.794;9.820;2023-02-08T12:05:08;97949.88;;;17.82;41.17
40596;BME280;26304;48.794;9.820;2023-02-08T12:11:15;97947.69;;;17.84;41.07
40596;BME280;26304;48.794;9.820;2023-02-08T12:17:20;97943.34;;;17.54;40.07
40596;BME280;26304;48.794;9.820;2023-02-08T12:23:26;97936.88;;;16.38;37.57
40596;BME280;26304;48.794;9.820;2023-02-08T12:29:40;97919.00;;;16.31;36.16
40596;BME280;26304;48.794;9.820;2023-02-08T12:35:40;97910.69;;;15.90;35.35
40596;BME280;26304;48.794;9.820;2023-02-08T12:41:30;97906.19;;;16.00;34.74
40596;BME280;26304;48.794;9.820;2023-02-08T12:47:32;97902.44;;;15.53;34.00
40596;BME280;26304;48.794;9.820;2023-02-08T12:53:23;97895.34;;;16.10;34.82
40596;BME280;26304;48.794;9.820;2023-02-08T12:59:18;97882.31;;;16.73;37.30
40596;BME280;26304;48.794;9.820;2023-02-08T13:05:05;97870.03;;;16.86;37.76
40596;BME280;26304;48.794;9.820;2023-02-08T13:10:51;97865.28;;;17.00;37.60
40596;BME280;26304;48.794;9.820;2023-02-08T13:16:42;97872.19;;;17.05;37.70
40596;BME280;26304;48.794;9.820;2023-02-08T13:22:31;97865.13;;;17.18;37.88
40596;BME280;26304;48.794;9.820;2023-02-08T13:28:18;97867.22;;;17.24;37.80
40596;BME280;26304;48.794;9.820;2023-02-08T13:34:05;97853.13;;;17.29;38.10
40596;BME280;26304;48.794;9.820;2023-02-08T13:39:57;97855.09;;;17.32;37.71
40596;BME280;26304;48.794;9.820;2023-02-08T13:45:44;97840.75;;;17.30;37.77
40596;BME280;26304;48.794;9.820;2023-02-08T13:51:53;97838.69;;;17.35;37.19
40596;BME280;26304;48.794;9.820;2023-02-08T13:57:52;97838.69;;;17.35;38.00
40596;BME280;26304;48.794;9.820;2023-02-08T14:03:35;97846.03;;;17.42;37.69
40596;BME280;26304;48.794;9.820;2023-02-08T14:09:22;97857.97;;;17.52;37.32
40596;BME280;26304;48.794;9.820;2023-02-08T14:15:32;97860.41;;;17.57;37.79
40596;BME280;26304;48.794;9.820;2023-02-08T14:21:28;97843.09;;;17.56;37.56
40596;BME280;26304;48.794;9.820;2023-02-08T14:27:20;97843.34;;;17.63;37.98
40596;BME280;26304;48.794;9.820;2023-02-08T14:33:11;97844.09;;;17.64;37.17
40596;BME280;26304;48.794;9.820;2023-02-08T14:39:21;97850.91;;;17.65;37.52
40596;BME280;26304;48.794;9.820;2023-02-08T14:45:25;97861.28;;;17.61;37.99
40596;BME280;26304;48.794;9.820;2023-02-08T14:51:16;97863.84;;;17.70;37.85
40596;BME280;26304;48.794;9.820;2023-02-08T14:57:04;97856.13;;;17.52;38.27
40596;BME280;26304;48.794;9.820;2023-02-08T15:02:50;97853.09;;;18.90;36.87
40596;BME280;26304;48.794;9.820;2023-02-08T15:08:33;97856.69;;;19.57;35.84
40596;BME280;26304;48.794;9.820;2023-02-08T15:14:18;97859.72;;;20.39;34.97
40596;BME280;26304;48.794;9.820;2023-02-08T15:20:05;97849.09;;;20.94;34.43
40596;BME280;26304;48.794;9.820;2023-02-08T15:25:54;97852.16;;;21.16;34.49
40596;BME280;26304;48.794;9.820;2023-02-08T15:31:37;97859.63;;;21.53;34.43
40596;BME280;26304;48.794;9.820;2023-02-08T15:37:20;97850.94;;;21.79;34.25
40596;BME280;26304;48.794;9.820;2023-02-08T15:43:10;97855.47;;;21.79;34.34
40596;BME280;26304;48.794;9.820;2023-02-08T15:48:54;97846.84;;;21.58;34.67
40596;BME280;26304;48.794;9.820;2023-02-08T15:54:38;97849.84;;;21.57;35.22
40596;BME280;26304;48.794;9.820;2023-02-08T16:00:24;97841.66;;;20.80;37.35
40596;BME280;26304;48.794;9.820;2023-02-08T16:06:07;97837.63;;;20.86;37.47
40596;BME280;26304;48.794;9.820;2023-02-08T16:11:52;97839.59;;;21.79;36.35
40596;BME280;26304;48.794;9.820;2023-02-08T16:17:41;97850.69;;;22.14;36.02
40596;BME280;26304;48.794;9.820;2023-02-08T16:23:26;97844.97;;;21.59;37.12
40596;BME280;26304;48.794;9.820;2023-02-08T16:29:17;97840.16;;;21.22;37.75
40596;BME280;26304;48.794;9.820;2023-02-08T16:35:10;97840.91;;;20.80;38.65
40596;BME280;26304;48.794;9.820;2023-02-08T16:40:54;97835.72;;;20.48;39.45
40596;BME280;26304;48.794;9.820;2023-02-08T16:46:43;97843.63;;;20.28;39.38
40596;BME280;26304;48.794;9.820;2023-02-08T16:52:26;97846.91;;;20.06;40.17
40596;BME280;26304;48.794;9.820;2023-02-08T16:58:13;97842.06;;;19.92;40.15
40596;BME280;26304;48.794;9.820;2023-02-08T17:03:57;97847.78;;;19.78;40.43
40596;BME280;26304;48.794;9.820;2023-02-08T17:09:40;97853.28;;;19.73;40.70
40596;BME280;26304;48.794;9.820;2023-02-08T17:15:23;97849.44;;;19.54;40.87
40596;BME280;26304;48.794;9.820;2023-02-08T17:21:07;97860.94;;;19.46;41.09
40596;BME280;26304;48.794;9.820;2023-02-08T17:26:50;97866.31;;;19.34;41.50
40596;BME280;26304;48.794;9.820;2023-02-08T17:32:32;97875.09;;;19.26;41.37
40596;BME280;26304;48.794;9.820;2023-02-08T17:38:16;97870.41;;;19.19;41.76
40596;BME280;26304;48.794;9.820;2023-02-08T17:43:59;97858.88;;;19.39;40.99
40596;BME280;26304;48.794;9.820;2023-02-08T17:49:41;97866.72;;;19.36;41.30
40596;BME280;26304;48.794;9.820;2023-02-08T17:55:25;97873.41;;;19.17;41.29
40596;BME280;26304;48.794;9.820;2023-02-08T18:01:08;97870.34;;;19.15;40.67
40596;BME280;26304;48.794;9.820;2023-02-08T18:06:51;97875.47;;;18.96;40.87
40596;BME280;26304;48.794;9.820;2023-02-08T18:12:35;97875.69;;;18.91;41.19
40596;BME280;26304;48.794;9.820;2023-02-08T18:18:17;97870.41;;;18.91;40.77
40596;BME280;26304;48.794;9.820;2023-02-08T18:24:00;97858.38;;;18.77;42.13
40596;BME280;26304;48.794;9.820;2023-02-08T18:29:44;97846.94;;;19.14;41.98
40596;BME280;26304;48.794;9.820;2023-02-08T18:35:27;97851.34;;;18.81;41.74
40596;BME280;26304;48.794;9.820;2023-02-08T18:41:12;97854.19;;;18.76;41.98
40596;BME280;26304;48.794;9.820;2023-02-08T18:46:56;97843.88;;;18.83;41.34
40596;BME280;26304;48.794;9.820;2023-02-08T18:52:38;97857.25;;;18.91;42.38
40596;BME280;26304;48.794;9.820;2023-02-08T18:58:21;97851.97;;;18.91;42.92
40596;BME280;26304;48.794;9.820;2023-02-08T19:04:06;97850.88;;;18.92;43.50
40596;BME280;26304;48.794;9.820;2023-02-08T19:09:48;97847.75;;;18.86;43.90
40596;BME280;26304;48.794;9.820;2023-02-08T19:15:31;97838.81;;;18.91;44.79
40596;BME280;26304;48.794;9.820;2023-02-08T19:21:17;97836.41;;;19.14;44.47
40596;BME280;26304;48.794;9.820;2023-02-08T19:27:00;97836.41;;;19.14;44.17
40596;BME280;26304;48.794;9.820;2023-02-08T19:32:42;97835.72;;;19.17;44.21
40596;BME280;26304;48.794;9.820;2023-02-08T19:38:26;97843.72;;;19.20;43.88
40596;BME280;26304;48.794;9.820;2023-02-08T19:44:10;97828.78;;;19.24;43.99
40596;BME280;26304;48.794;9.820;2023-02-08T19:49:53;97828.31;;;19.22;43.95
40596;BME280;26304;48.794;9.820;2023-02-08T19:55:37;97827.78;;;19.01;43.59
40596;BME280;26304;48.794;9.820;2023-02-08T20:01:21;97825.19;;;18.88;43.82
40596;BME280;26304;48.794;9.820;2023-02-08T20:07:04;97820.50;;;18.82;43.05
40596;BME280;26304;48.794;9.820;2023-02-08T20:12:48;97827.00;;;18.84;42.90
40596;BME280;26304;48.794;9.820;2023-02-08T20:18:30;97825.28;;;18.11;40.27
40596;BME280;26304;48.794;9.820;2023-02-08T20:24:13;97827.88;;;17.86;38.61
40596;BME280;26304;48.794;9.820;2023-02-08T20:29:57;97831.28;;;17.74;37.99
40596;BME280;26304;48.794;9.820;2023-02-08T20:35:39;97826.16;;;17.20;35.89
40596;BME280;26304;48.794;9.820;2023-02-08T20:41:23;97824.31;;;16.87;35.08
40596;BME280;26304;48.794;9.820;2023-02-08T20:47:07;97819.91;;;17.12;36.37
40596;BME280;26304;48.794;9.820;2023-02-08T20:52:51;97809.94;;;17.18;37.51
40596;BME280;26304;48.794;9.820;2023-02-08T20:58:34;97822.75;;;17.19;38.31
40596;BME280;26304;48.794;9.820;2023-02-08T21:04:17;97819.69;;;17.17;38.16
40596;BME280;26304;48.794;9.820;2023-02-08T21:10:03;97811.25;;;17.12;39.03
40596;BME280;26304;48.794;9.820;2023-02-08T21:15:46;97817.59;;;17.11;39.02
40596;BME280;26304;48.794;9.820;2023-02-08T21:21:30;97807.28;;;17.05;39.88
40596;BME280;26304;48.794;9.820;2023-02-08T21:27:13;97796.34;;;17.03;39.77
40596;BME280;26304;48.794;9.820;2023-02-08T21:32:55;97796.53;;;16.98;40.01
40596;BME280;26304;48.794;9.820;2023-02-08T21:38:39;97786.88;;;16.90;39.90
40596;BME280;26304;48.794;9.820;2023-02-08T21:44:22;97798.03;;;16.87;40.18
40596;BME280;26304;48.794;9.820;2023-02-08T21:50:05;97785.72;;;16.79;40.63
40596;BME280;26304;48.794;9.820;2023-02-08T21:56:08;97791.63;;;16.76;40.77
40596;BME280;26304;48.794;9.820;2023-02-08T22:01:51;97784.59;;;16.67;40.94
40596;BME280;26304;48.794;9.820;2023-02-08T22:07:42;97776.47;;;16.60;41.39
40596;BME280;26304;48.794;9.820;2023-02-08T22:13:26;97775.91;;;16.55;41.19
40596;BME280;26304;48.794;9.820;2023-02-08T22:19:08;97773.13;;;16.51;41.97
40596;BME280;26304;48.794;9.820;2023-02-08T22:24:51;97767.97;;;16.42;41.67
40596;BME280;26304;48.794;9.820;2023-02-08T22:30:35;97778.97;;;16.36;41.72
40596;BME280;26304;48.794;9.820;2023-02-08T22:36:17;97774.50;;;16.36;41.69
40596;BME280;26304;48.794;9.820;2023-02-08T22:42:00;97766.03;;;16.30;42.43
40596;BME280;26304;48.794;9.820;2023-02-08T22:47:44;97775.97;;;16.25;42.02
40596;BME280;26304;48.794;9.820;2023-02-08T22:53:27;97766.41;;;16.20;42.06
40596;BME280;26304;48.794;9.820;2023-02-08T22:59:09;97767.69;;;16.14;42.40
40596;BME280;26304;48.794;9.820;2023-02-08T23:04:53;97754.91;;;16.12;42.54
40596;BME280;26304;48.794;9.820;2023-02-08T23:10:36;97750.28;;;16.09;42.84
40596;BME280;26304;48.794;9.820;2023-02-08T23:16:19;97747.09;;;16.04;42.59
40596;BME280;26304;48.794;9.820;2023-02-08T23:22:03;97746.63;;;16.02;42.92
40596;BME280;26304;48.794;9.820;2023-02-08T23:27:45;97744.97;;;15.97;42.46
40596;BME280;26304;48.794;9.820;2023-02-08T23:33:28;97743.00;;;15.94;43.12
40596;BME280;26304;48.794;9.820;2023-02-08T23:39:12;97736.09;;;15.89;42.61
40596;BME280;26304;48.794;9.820;2023-02-08T23:44:56;97735.16;;;15.85;43.08
40596;BME280;26304;48.794;9.820;2023-02-08T23:50:39;97733.94;;;15.83;43.40
40596;BME280;26304;48.794;9.820;2023-02-08T23:56:24;97725.94;;;15.79;42.91
